VOI142 MMMX-MMGL
Flight info
| Callsign | VOI142 |
|---|---|
| Flight time | N/A |
| Altitude | 34000 |
| Route | OVAGO3A OVAGO UT123 IGSON IGSON1B |
| Aircraft | A320/M-SDE3FGHIRWY/LB1 |
Departure
| Time | 2026-05-06 02:40 |
|---|---|
| Airport | Mexico City Benito Juárez International Airport (MMMX) |
Arrival
| Time | N/A |
|---|---|
| Airport | Guadalajara International Airport (MMGL) |
| Time | Latitude | Longitude | Altitude | Speed | Heading |
|---|---|---|---|---|---|
| 2026-05-06 02:03 | 19.43251 | -99.08740 | 7353 ft | 0 kts | 105° |
| 2026-05-06 02:27 | 19.43252 | -99.08743 | 7353 ft | 0 kts | 106° |
| 2026-05-06 02:27 | 19.43254 | -99.08751 | 7353 ft | 1 kts | 107° |
| 2026-05-06 02:28 | 19.43258 | -99.08765 | 7353 ft | 2 kts | 109° |
| 2026-05-06 02:28 | 19.43266 | -99.08787 | 7352 ft | 0 kts | 112° |
| 2026-05-06 02:28 | 19.43266 | -99.08786 | 7352 ft | 0 kts | 112° |
| 2026-05-06 02:30 | 19.43266 | -99.08787 | 7352 ft | 0 kts | 112° |
| 2026-05-06 02:30 | 19.43268 | -99.08792 | 7352 ft | 0 kts | 112° |
| 2026-05-06 02:30 | 19.43266 | -99.08787 | 7352 ft | 2 kts | 111° |
| 2026-05-06 02:30 | 19.43264 | -99.08782 | 7352 ft | 3 kts | 110° |
| 2026-05-06 02:31 | 19.43263 | -99.08778 | 7352 ft | 1 kts | 109° |
| 2026-05-06 02:31 | 19.43261 | -99.08774 | 7352 ft | 1 kts | 109° |
| 2026-05-06 02:31 | 19.43261 | -99.08772 | 7352 ft | 1 kts | 110° |
| 2026-05-06 02:31 | 19.43245 | -99.08768 | 7352 ft | 5 kts | 187° |
| 2026-05-06 02:32 | 19.43213 | -99.08781 | 7351 ft | 3 kts | 201° |
| 2026-05-06 02:32 | 19.43212 | -99.08781 | 7351 ft | 0 kts | 198° |
| 2026-05-06 02:32 | 19.43210 | -99.08781 | 7351 ft | 0 kts | 199° |
| 2026-05-06 02:33 | 19.43205 | -99.08785 | 7351 ft | 2 kts | 208° |
| 2026-05-06 02:33 | 19.43187 | -99.08799 | 7350 ft | 6 kts | 220° |
| 2026-05-06 02:33 | 19.43123 | -99.08849 | 7348 ft | 4 kts | 213° |
| 2026-05-06 02:34 | 19.43096 | -99.08868 | 7347 ft | 4 kts | 213° |
| 2026-05-06 02:34 | 19.43070 | -99.08886 | 7346 ft | 4 kts | 213° |
| 2026-05-06 02:34 | 19.43042 | -99.08902 | 7346 ft | 4 kts | 205° |
| 2026-05-06 02:34 | 19.43014 | -99.08917 | 7345 ft | 4 kts | 207° |
| 2026-05-06 02:35 | 19.43001 | -99.08924 | 7344 ft | 0 kts | 207° |
| 2026-05-06 02:35 | 19.42996 | -99.08926 | 7344 ft | 0 kts | 207° |
| 2026-05-06 02:35 | 19.42980 | -99.08935 | 7343 ft | 4 kts | 207° |
| 2026-05-06 02:35 | 19.42945 | -99.08962 | 7342 ft | 7 kts | 229° |
| 2026-05-06 02:36 | 19.42919 | -99.08998 | 7341 ft | 6 kts | 231° |
| 2026-05-06 02:36 | 19.42887 | -99.09016 | 7340 ft | 2 kts | 181° |
| 2026-05-06 02:36 | 19.42886 | -99.09016 | 7340 ft | 0 kts | 180° |
| 2026-05-06 02:38 | 19.42881 | -99.09016 | 7341 ft | 3 kts | 179° |
| 2026-05-06 02:38 | 19.42837 | -99.09002 | 7340 ft | 9 kts | 153° |
| 2026-05-06 02:38 | 19.42806 | -99.08967 | 7340 ft | 4 kts | 83° |
| 2026-05-06 02:39 | 19.42814 | -99.08951 | 7340 ft | 0 kts | 57° |
| 2026-05-06 02:40 | 19.42919 | -99.08766 | 7345 ft | 64 kts | 60° |
| 2026-05-06 02:40 | 19.43265 | -99.08151 | 7356 ft | 129 kts | 60° |
| 2026-05-06 02:40 | 19.43811 | -99.07165 | 7468 ft | 171 kts | 61° |
| 2026-05-06 02:40 | 19.44410 | -99.06095 | 8108 ft | 168 kts | 61° |
| 2026-05-06 02:41 | 19.45000 | -99.05045 | 8721 ft | 170 kts | 61° |
| 2026-05-06 02:41 | 19.45614 | -99.03976 | 9276 ft | 173 kts | 61° |
| 2026-05-06 02:41 | 19.46246 | -99.02867 | 9500 ft | 180 kts | 61° |
| 2026-05-06 02:41 | 19.46914 | -99.01685 | 9689 ft | 190 kts | 62° |
| 2026-05-06 02:42 | 19.47607 | -99.00453 | 9866 ft | 201 kts | 62° |
| 2026-05-06 02:42 | 19.48337 | -98.99152 | 10068 ft | 212 kts | 61° |
| 2026-05-06 02:42 | 19.49115 | -98.97765 | 10289 ft | 223 kts | 62° |
| 2026-05-06 02:42 | 19.49671 | -98.96221 | 10491 ft | 232 kts | 86° |
| 2026-05-06 02:43 | 19.49388 | -98.94529 | 10700 ft | 241 kts | 117° |
| 2026-05-06 02:43 | 19.48267 | -98.93174 | 10864 ft | 254 kts | 148° |
| 2026-05-06 02:43 | 19.46538 | -98.92634 | 11020 ft | 270 kts | 182° |
| 2026-05-06 02:43 | 19.44739 | -98.93242 | 11415 ft | 278 kts | 216° |
| 2026-05-06 02:44 | 19.43475 | -98.94795 | 11890 ft | 281 kts | 237° |
| 2026-05-06 02:44 | 19.43150 | -98.95367 | 12044 ft | 282 kts | 238° |
| 2026-05-06 02:44 | 19.41495 | -98.98387 | 12771 ft | 287 kts | 238° |
| 2026-05-06 02:44 | 19.40470 | -99.00221 | 13213 ft | 290 kts | 238° |
| 2026-05-06 02:45 | 19.39417 | -99.02069 | 13687 ft | 293 kts | 238° |
| 2026-05-06 02:45 | 19.38353 | -99.03919 | 14154 ft | 296 kts | 238° |
| 2026-05-06 02:45 | 19.37395 | -99.05859 | 14628 ft | 299 kts | 248° |
| 2026-05-06 02:45 | 19.36796 | -99.07974 | 15004 ft | 305 kts | 259° |
| 2026-05-06 02:46 | 19.36436 | -99.10228 | 15228 ft | 318 kts | 262° |
| 2026-05-06 02:46 | 19.36114 | -99.12592 | 15514 ft | 328 kts | 262° |
| 2026-05-06 02:46 | 19.35786 | -99.14996 | 15950 ft | 332 kts | 262° |
| 2026-05-06 02:46 | 19.35451 | -99.17390 | 16427 ft | 334 kts | 262° |
| 2026-05-06 02:47 | 19.35100 | -99.19843 | 16904 ft | 337 kts | 262° |
| 2026-05-06 02:47 | 19.34743 | -99.22301 | 17366 ft | 339 kts | 262° |
| 2026-05-06 02:47 | 19.34385 | -99.24760 | 17848 ft | 341 kts | 262° |
| 2026-05-06 02:47 | 19.34023 | -99.27244 | 18309 ft | 343 kts | 261° |
| 2026-05-06 02:48 | 19.33659 | -99.29732 | 18762 ft | 344 kts | 261° |
| 2026-05-06 02:48 | 19.33293 | -99.32223 | 19201 ft | 346 kts | 261° |
| 2026-05-06 02:48 | 19.33046 | -99.33896 | 19485 ft | 348 kts | 261° |